Flight Track Log - Related Links

Times and Time Zones

All times are in EDT time to prevent confusion due to time zone crossing. See the ASQ5745 flight status page for this flight to view local times or setup timezone preferences in your user account.

Time Position Orientation Groundspeed Altitude Reporting Facility
EDT Latitude Longitude Course Direction KTS MPH feet Rate Location/Type
Fri 08:21:28 38.9667 -77.5333 North 188 216 1,800  Level Potomac TRACON
Fri 08:23:00 39.2193 -77.4500 North  Level FlightAware
Fri 08:23:42 39.1142 -77.5631 351° North 255 293 6,000  Level Washington Center
Fri 08:24:00 39.3146 -77.4500 North  Level FlightAware
Fri 08:24:43 39.1786 -77.5622 North 266 306 7,800  Level Washington Center
Fri 08:25:00 39.4099 -77.4500 North  Level FlightAware
Fri 08:25:44 39.2767 -77.5675 358° North 281 323 10,100  Level Washington Center
Fri 08:26:00 39.5052 -77.4500 North  Level FlightAware
Fri 08:26:45 39.3597 -77.5725 357° North 292 336 12,100  Level Washington Center
Fri 08:27:45 39.4458 -77.5372 18° North 298 343 13,300 918 Climbing Washington Center
Fri 08:29:48 39.6339 -77.4594 18° North 356 410 14,900 928 Climbing New Center
Fri 08:30:46 39.7511 -77.4517 North 375 432 16,100 1,169 Climbing New Center
Fri 08:31:46 39.8453 -77.4469 North 380 437 17,200 1,050 Climbing New Center
Fri 08:32:46 39.9519 -77.3678 30° Northeast 383 441 18,200 850 Climbing New Center
Fri 08:33:46 40.0369 -77.3000 31° Northeast 397 457 18,900 800 Climbing New Center
Fri 08:34:46 40.1331 -77.2219 32° Northeast 403 464 19,800 850 Climbing New Center
Fri 08:35:46 40.2289 -77.1467 31° Northeast 403 464 20,600 750 Climbing New Center
Fri 08:36:46 40.3253 -77.0628 34° Northeast 403 464 21,300 645 Climbing New Center
Fri 08:37:47 40.4250 -76.9875 30° Northeast 403 464 21,900 590 Climbing New Center
Fri 08:38:48 40.5233 -76.9033 33° Northeast 408 470 22,500 555 Climbing New Center
Fri 08:39:46 40.6233 -76.8194 32° Northeast 408 470 23,000 508 Climbing New Center
Fri 08:40:46 40.7236 -76.7350 33° Northeast 414 476 23,500 500 Climbing New Center
Fri 08:41:46 40.8258 -76.6508 32° Northeast 427 491 24,000 496 Climbing New Center
Fri 08:42:47 40.9300 -76.5664 31° Northeast 434 499 24,500 496 Climbing New Center
Fri 08:43:47 41.0319 -76.4814 32° Northeast 434 499 25,000 496 Climbing New Center
Fri 08:44:48 41.1319 -76.3961 33° Northeast 434 499 25,500 555 Climbing New Center
Fri 08:45:46 41.2319 -76.3081 34° Northeast 434 499 26,100 555 Climbing New Center
Fri 08:46:47 41.3492 -76.2069 33° Northeast 445 512 26,600 446 Climbing New Center
Fri 08:47:47 41.4531 -76.1214 32° Northeast 451 519 27,000 148 Climbing New Center
Fri 08:48:49 41.5547 -76.0353 32° Northeast 445 512 26,900 -504 Descending New Center
Fri 08:49:46 41.6392 -75.9642 32° Northeast 445 512 26,000 -458 Descending New Center
Fri 08:50:47 41.7625 -75.8569 33° Northeast 450 518 26,000 -276 Level New Center
Fri 08:52:40 41.9472 -75.6950 33° Northeast 447 514 25,200 -590 Descending Boston Center
Fri 08:53:40 42.0519 -75.6053 32° Northeast 446 513 24,300 -950 Descending Boston Center
Fri 08:54:40 42.1567 -75.5125 33° Northeast 446 513 23,300 -1,300 Descending Boston Center
Fri 08:55:40 42.2633 -75.4225 32° Northeast 446 513 21,700 -1,550 Descending Boston Center
Fri 08:56:40 42.3333 -75.2936 54° Northeast 426 490 20,200 -1,600 Descending Boston Center
Fri 08:57:40 42.3786 -75.1383 68° East 424 488 18,500 -1,800 Descending Boston Center
Fri 08:58:40 42.4244 -74.9658 70° East 424 488 16,600 -1,750 Descending Boston Center
Fri 08:59:40 42.4672 -74.8156 69° East 433 498 15,000 -1,550 Descending Boston Center
Fri 09:00:40 42.5078 -74.6622 70° East 426 490 13,500 -1,560 Descending Boston Center
Fri 09:01:20 42.5389 -74.5647 67° East 425 489 12,400 -1,545 Descending Boston Center
Fri 09:02:21 42.5792 -74.4167 70° East 421 484 10,900 -1,082 Descending Boston Center
Fri 09:03:22 42.6167 -74.2908 68° East 346 398 10,200 -1,190 Descending Boston Center
Fri 09:04:22 42.6500 -74.1678 70° East 306 352 8,500 -1,722 Descending Boston Center
Fri 09:05:17 42.6967 -74.1011 46° Northeast 291 335 6,900 -1,810 Descending Boston Center
Fri 09:06:18 42.7725 -74.0494 27° Northeast 281 323 5,000 -1,736 Descending Boston Center
Fri 09:07:18 42.8358 -73.9917 34° Northeast 276 318 3,400 -1,181 Descending Boston Center
Fri 09:08:25 42.8581 -73.8931 73° East 256 295 2,500 -806 Descending Boston Center

Login

Don't have an account? Register now (free) for customized features, flight alerts, and more!